createdAt,value
2023-05-09T00:00:06.201Z,13.85
2023-05-09T00:05:09.823Z,13.35
2023-05-09T00:10:11.185Z,13.52
2023-05-09T00:15:13.005Z,13.07
2023-05-09T00:20:14.624Z,15.57
2023-05-09T00:25:16.183Z,16.95
2023-05-09T00:30:17.708Z,15.45
2023-05-09T00:35:19.338Z,16.88
2023-05-09T00:40:20.721Z,16.10
2023-05-09T00:45:22.056Z,15.77
2023-05-09T00:50:26.203Z,15.88
2023-05-09T00:55:27.649Z,15.50
2023-05-09T01:00:29.417Z,16.88
2023-05-09T01:05:43.619Z,15.65
2023-05-09T01:11:03.993Z,16.40
2023-05-09T01:16:29.581Z,16.00
2023-05-09T01:21:32.315Z,17.23
2023-05-09T01:26:43.165Z,16.77
2023-05-09T01:31:46.158Z,16.42
2023-05-09T01:36:51.084Z,16.63
2023-05-09T01:41:55.084Z,16.30
2023-05-09T01:46:58.878Z,17.38
2023-05-09T01:52:03.606Z,15.63
2023-05-09T01:57:07.608Z,17.42
2023-05-09T02:02:09.665Z,14.25
2023-05-09T02:07:12.628Z,15.57
2023-05-09T02:12:13.987Z,14.63
2023-05-09T02:17:16.938Z,15.45
2023-05-09T02:22:18.292Z,15.47
2023-05-09T02:27:21.435Z,15.57
2023-05-09T02:32:26.928Z,14.50
2023-05-09T02:37:28.851Z,14.43
2023-05-09T02:42:30.423Z,14.73
2023-05-09T02:47:31.912Z,14.63
2023-05-09T02:52:33.289Z,15.00
2023-05-09T02:57:34.533Z,15.57
2023-05-09T03:02:36.980Z,13.18
2023-05-09T03:07:38.376Z,15.55
2023-05-09T03:12:40.211Z,14.93
2023-05-09T03:17:41.699Z,13.95
2023-05-09T03:22:43.052Z,13.80
2023-05-09T03:27:44.334Z,14.40
2023-05-09T03:32:45.722Z,14.85
2023-05-09T03:37:47.124Z,15.45
2023-05-09T03:42:48.454Z,15.63
2023-05-09T03:47:49.917Z,16.52
2023-05-09T03:52:51.327Z,14.70
2023-05-09T03:57:52.681Z,13.85
2023-05-09T04:02:54.057Z,14.73
2023-05-09T04:07:55.520Z,14.85
2023-05-09T04:12:56.956Z,15.32
2023-05-09T04:17:58.331Z,14.60
2023-05-09T04:22:59.993Z,15.27
2023-05-09T04:28:01.625Z,14.43
2023-05-09T04:33:03.141Z,15.70
2023-05-09T04:38:04.865Z,15.43
2023-05-09T04:43:06.306Z,15.25
2023-05-09T04:48:07.853Z,16.05
2023-05-09T04:53:09.382Z,16.85
2023-05-09T04:58:10.783Z,15.68
2023-05-09T05:03:12.807Z,15.52
2023-05-09T05:08:14.176Z,17.73
2023-05-09T05:13:16.196Z,16.10
2023-05-09T05:18:17.906Z,16.23
2023-05-09T05:23:19.401Z,16.75
2023-05-09T05:28:20.868Z,15.80
2023-05-09T05:33:22.156Z,17.05
2023-05-09T05:38:23.577Z,18.02
2023-05-09T05:43:24.904Z,18.38
2023-05-09T05:48:26.603Z,17.63
2023-05-09T05:53:28.063Z,17.00
2023-05-09T05:58:29.413Z,17.60
2023-05-09T06:03:30.852Z,16.65
2023-05-09T06:08:32.437Z,15.95
2023-05-09T06:13:33.807Z,16.92
2023-05-09T06:18:37.592Z,15.93
2023-05-09T06:28:52.171Z,16.77
2023-05-09T06:33:53.505Z,13.75
2023-05-09T06:38:54.813Z,15.95
2023-05-09T06:43:56.181Z,15.80
2023-05-09T06:48:57.601Z,16.17
2023-05-09T06:53:58.990Z,15.60
2023-05-09T06:59:00.436Z,13.88
2023-05-09T07:04:01.750Z,15.90
2023-05-09T07:09:04.228Z,14.90
2023-05-09T07:14:05.862Z,14.40
2023-05-09T07:19:07.205Z,14.60
2023-05-09T07:24:08.691Z,15.00
2023-05-09T07:29:10.137Z,13.48
2023-05-09T07:34:11.907Z,14.80
2023-05-09T07:39:13.251Z,14.23
2023-05-09T07:44:14.605Z,13.02
2023-05-09T07:49:15.931Z,12.57
2023-05-09T07:54:17.411Z,13.30
2023-05-09T07:59:19.279Z,13.88
2023-05-09T08:04:20.740Z,12.98
2023-05-09T08:09:22.321Z,14.68
2023-05-09T08:14:24.043Z,14.05
2023-05-09T08:19:26.363Z,12.50
2023-05-09T08:24:27.855Z,15.00
2023-05-09T08:29:29.735Z,12.77
2023-05-09T08:34:34.384Z,13.60
2023-05-09T08:39:35.920Z,13.77
2023-05-09T08:44:37.305Z,12.60
2023-05-09T08:49:40.010Z,14.43
2023-05-09T08:54:41.605Z,13.95
2023-05-09T08:59:43.516Z,13.20
2023-05-09T09:04:45.190Z,14.43
2023-05-09T09:09:48.728Z,14.10
2023-05-09T09:14:55.010Z,12.52
2023-05-09T09:20:00.658Z,14.50
2023-05-09T09:25:03.934Z,11.52
2023-05-09T09:30:09.978Z,11.15
2023-05-09T09:35:11.907Z,12.82
2023-05-09T09:40:14.461Z,12.65
2023-05-09T09:45:19.016Z,12.25
2023-05-09T09:50:23.152Z,12.40
2023-05-09T09:55:24.908Z,12.25
2023-05-09T10:00:27.940Z,11.93
2023-05-09T10:05:30.815Z,13.07
2023-05-09T10:10:34.239Z,11.47
2023-05-09T10:15:49.286Z,10.80
2023-05-09T10:20:54.908Z,11.55
2023-05-09T10:26:23.506Z,10.90
2023-05-09T10:31:31.468Z,11.65
2023-05-09T10:36:33.067Z,11.48
2023-05-09T10:41:36.911Z,11.27
2023-05-09T10:46:38.988Z,11.20
2023-05-09T10:51:40.500Z,11.38
2023-05-09T10:56:42.045Z,11.27
2023-05-09T11:01:43.384Z,11.30
2023-05-09T11:06:51.131Z,11.90
2023-05-09T11:11:57.532Z,12.88
2023-05-09T11:17:00.729Z,12.35
2023-05-09T11:22:10.978Z,13.52
2023-05-09T11:27:49.669Z,14.60
2023-05-09T11:32:55.930Z,12.98
2023-05-09T11:38:02.088Z,14.38
2023-05-09T11:43:03.457Z,13.02
2023-05-09T11:48:09.154Z,13.20
2023-05-09T11:53:12.327Z,12.63
2023-05-09T11:58:13.838Z,12.80
2023-05-09T12:03:15.348Z,13.57
2023-05-09T12:08:16.759Z,11.73
2023-05-09T12:13:19.290Z,10.93
2023-05-09T12:18:20.763Z,10.50
2023-05-09T12:23:23.345Z,9.68
2023-05-09T12:28:26.428Z,10.07
2023-05-09T12:33:28.238Z,9.18
2023-05-09T12:38:29.613Z,9.13
2023-05-09T12:43:36.059Z,8.98
2023-05-09T12:48:38.613Z,8.48
2023-05-09T12:53:41.499Z,8.88
2023-05-09T12:58:51.626Z,6.70
2023-05-09T13:04:02.265Z,9.35
2023-05-09T13:09:06.002Z,10.00
2023-05-09T13:14:08.324Z,10.10
2023-05-09T13:19:10.253Z,10.10
2023-05-09T13:24:11.614Z,9.43
2023-05-09T13:29:13.007Z,10.20
2023-05-09T13:34:14.344Z,10.32
2023-05-09T13:39:16.523Z,10.57
2023-05-09T13:44:18.178Z,9.50
2023-05-09T13:49:20.048Z,10.25
2023-05-09T13:54:22.862Z,10.35
2023-05-09T13:59:24.302Z,8.70
2023-05-09T14:04:31.747Z,10.40
2023-05-09T14:09:38.085Z,10.02
2023-05-09T14:14:39.446Z,9.77
2023-05-09T14:19:40.800Z,9.75
2023-05-09T14:24:42.220Z,11.52
2023-05-09T14:29:44.074Z,10.95
2023-05-09T14:34:45.811Z,10.68
2023-05-09T14:39:47.563Z,10.65
2023-05-09T14:44:48.920Z,10.98
2023-05-09T14:49:50.203Z,11.25
2023-05-09T14:54:51.556Z,11.73
2023-05-09T14:59:53.006Z,10.50
2023-05-09T15:04:55.869Z,11.85
2023-05-09T15:09:57.492Z,10.83
2023-05-09T15:15:12.724Z,10.10
2023-05-09T15:20:15.430Z,11.18
2023-05-09T15:25:17.264Z,9.60
2023-05-09T15:30:18.706Z,9.18
2023-05-09T15:35:20.181Z,10.35
2023-05-09T15:40:21.812Z,15.02
2023-05-09T15:45:23.176Z,12.10
2023-05-09T15:50:24.530Z,12.85
2023-05-09T15:55:28.530Z,13.13
2023-05-09T16:00:30.112Z,12.48
2023-05-09T16:05:31.518Z,13.77
2023-05-09T16:10:32.980Z,11.90
2023-05-09T16:15:34.973Z,13.10
2023-05-09T16:20:36.820Z,12.88
2023-05-09T16:25:38.266Z,14.82
2023-05-09T16:30:39.955Z,13.82
2023-05-09T16:35:41.402Z,14.15
2023-05-09T16:40:42.753Z,12.98
2023-05-09T16:45:44.291Z,11.50
2023-05-09T16:50:46.606Z,13.88
2023-05-09T16:55:48.403Z,13.27
2023-05-09T17:00:50.658Z,12.85
2023-05-09T17:05:51.993Z,13.88
2023-05-09T17:10:53.640Z,14.85
2023-05-09T17:15:54.926Z,13.25
2023-05-09T17:20:56.626Z,13.18
2023-05-09T17:25:58.129Z,12.55
2023-05-09T17:30:59.617Z,13.70
2023-05-09T17:36:01.471Z,12.90
2023-05-09T17:41:02.825Z,12.27
2023-05-09T17:46:04.736Z,13.52
2023-05-09T17:51:06.127Z,14.25
2023-05-09T17:56:07.650Z,15.25
2023-05-09T18:01:09.509Z,13.90
2023-05-09T18:06:10.866Z,15.15
2023-05-09T18:11:12.369Z,15.15
2023-05-09T18:16:13.818Z,11.10
2023-05-09T18:21:15.218Z,10.25
2023-05-09T18:26:17.242Z,11.77
2023-05-09T18:31:18.982Z,10.75
2023-05-09T18:36:20.582Z,7.53
2023-05-09T18:41:21.997Z,7.70
2023-05-09T18:46:23.448Z,7.60
2023-05-09T18:51:25.600Z,8.40
2023-05-09T18:56:26.944Z,9.25
2023-05-09T19:01:28.380Z,6.88
2023-05-09T19:06:29.801Z,6.45
2023-05-09T19:11:31.554Z,5.85
2023-05-09T19:16:32.945Z,4.78
2023-05-09T19:21:35.509Z,5.07
2023-05-09T19:26:36.869Z,6.00
2023-05-09T19:31:38.208Z,5.55
2023-05-09T19:36:39.689Z,5.00
2023-05-09T19:41:41.345Z,4.43
2023-05-09T19:46:43.066Z,4.90
2023-05-09T19:51:44.498Z,5.00
2023-05-09T19:56:45.819Z,5.28
2023-05-09T20:01:47.188Z,6.90
2023-05-09T20:06:49.017Z,4.32
2023-05-09T20:11:50.593Z,5.05
2023-05-09T20:16:51.937Z,3.63
2023-05-09T20:21:53.885Z,3.45
2023-05-09T20:26:55.347Z,3.65
2023-05-09T20:31:56.982Z,5.88
2023-05-09T20:36:58.401Z,3.85
2023-05-09T20:42:02.126Z,6.20
2023-05-09T20:47:03.528Z,5.03
2023-05-09T20:52:04.934Z,6.15
2023-05-09T20:57:06.261Z,4.68
2023-05-09T21:02:08.237Z,4.07
2023-05-09T21:07:09.924Z,3.85
2023-05-09T21:12:11.390Z,4.03
2023-05-09T21:17:12.892Z,4.10
2023-05-09T21:22:14.188Z,3.90
2023-05-09T21:27:15.497Z,5.00
2023-05-09T21:32:16.936Z,3.60
2023-05-09T21:37:19.352Z,4.75
2023-05-09T21:42:22.876Z,3.70
2023-05-09T21:47:24.423Z,4.78
2023-05-09T21:52:26.089Z,4.00
2023-05-09T21:57:27.384Z,4.00
2023-05-09T22:02:29.352Z,4.20
2023-05-09T22:07:30.850Z,4.57
2023-05-09T22:12:32.219Z,3.55
2023-05-09T22:17:33.550Z,4.00
2023-05-09T22:22:35.061Z,4.32
2023-05-09T22:27:36.381Z,4.07
2023-05-09T22:32:38.414Z,4.38
2023-05-09T22:37:39.897Z,4.47
2023-05-09T22:42:41.211Z,3.38
2023-05-09T22:47:42.580Z,3.53
2023-05-09T22:52:44.270Z,4.47
2023-05-09T22:57:45.729Z,4.43
2023-05-09T23:02:47.225Z,3.97
2023-05-09T23:07:48.616Z,3.67
2023-05-09T23:12:50.005Z,4.32
2023-05-09T23:17:51.319Z,3.83
2023-05-09T23:22:52.755Z,3.00
2023-05-09T23:27:54.700Z,4.22
2023-05-09T23:32:56.247Z,3.85
2023-05-09T23:37:57.693Z,3.35
2023-05-09T23:42:59.047Z,3.42
2023-05-09T23:48:00.680Z,3.85
2023-05-09T23:53:04.781Z,1.20
2023-05-09T23:58:06.131Z,0.77
